Terminal Aerodrome Forecast
Issued by NWS Los Angeles, CA

Home | Current Version | Previous Version | Text Only | Print | Product List | Glossary On
Versions: 1 2 3 4 5 6 7 8 9 10 11 12 13 14 15 16 17 18 19 20 21
000
FTUS46 KLOX 222300
TAFSMX
TAF
KSMX 222335Z 2300/2324 31010KT P6SM SKC
     FM230400 VRB03KT P6SM BKN007
     FM230800 VRB03KT 4SM BR OVC005
     FM231500 VRB03KT P6SM OVC008
     FM231800 VRB03KT P6SM SCT013
     FM232000 30010KT P6SM SKC=

USA.gov is the U.S. government's official web portal to all federal, state and local government web resources and services.